Time;durP1;ratioP1;P1;durP2;ratioP2;P2;SDS_P1;SDS_P2;PMS_P1;PMS_P2;Temp;Humidity;BMP_temperature;BMP_pressure;BME280_temperature;BME280_humidity;BME280_pressure;Samples;Min_cycle;Max_cycle;Signal;HPM_P1;HPM_P2
2023/05/22 00:01:31;;;;;;;1999.90;999.90;;;22.90;87.30;;;;;;5083516;28;20054;-69
2023/05/22 00:03:58;;;;;;;1999.90;999.90;;;23.50;84.10;;;;;;5088914;28;20024;-70
2023/05/22 00:06:26;;;;;;;1999.90;999.90;;;23.60;83.50;;;;;;5089822;28;20362;-67
2023/05/22 00:08:54;;;;;;;1999.90;999.90;;;23.50;83.70;;;;;;5089959;28;20131;-68
2023/05/22 00:11:22;;;;;;;1999.90;999.90;;;23.70;84.80;;;;;;5070097;28;20573;-69
2023/05/22 00:13:50;;;;;;;1999.90;999.90;;;24.00;84.50;;;;;;5095078;28;20056;-69
2023/05/22 00:16:17;;;;;;;1999.90;999.90;;;24.50;83.50;;;;;;5082121;28;20121;-68
2023/05/22 00:18:44;;;;;;;1999.90;999.90;;;25.00;79.90;;;;;;5102125;28;20482;-68
2023/05/22 00:21:17;;;;;;;1999.90;999.90;;;25.00;79.30;;;;;;5095204;28;20034;-68
2023/05/22 00:23:45;;;;;;;1999.90;999.90;;;24.90;80.30;;;;;;5093769;28;20502;-69
2023/05/22 00:26:15;;;;;;;1999.90;999.90;;;24.90;81.20;;;;;;5092789;28;20461;-69
2023/05/22 00:28:43;;;;;;;1999.90;999.90;;;25.40;81.00;;;;;;5093404;28;20566;-69
2023/05/22 00:31:10;;;;;;;1999.90;999.90;;;26.20;78.10;;;;;;5091355;28;20051;-69
2023/05/22 00:33:38;;;;;;;1999.90;999.90;;;25.90;76.60;;;;;;5095488;28;20371;-71
2023/05/22 00:36:06;;;;;;;1999.90;999.90;;;25.80;76.90;;;;;;5087537;28;20028;-67
2023/05/22 00:38:36;;;;;;;1999.90;999.90;;;26.00;76.00;;;;;;5087106;28;20116;-69
2023/05/22 00:41:05;;;;;;;1999.90;999.90;;;25.70;76.30;;;;;;5082825;28;20043;-69
2023/05/22 00:43:38;;;;;;;1999.90;999.90;;;25.30;74.80;;;;;;5084799;28;20102;-69
2023/05/22 00:46:06;;;;;;;1999.90;999.90;;;25.10;75.40;;;;;;5088261;28;20105;-69
2023/05/22 00:48:33;;;;;;;1999.90;999.90;;;24.90;75.50;;;;;;5063155;28;20031;-69
2023/05/22 00:51:01;;;;;;;1999.90;999.90;;;24.90;76.10;;;;;;5090292;28;20031;-69
2023/05/22 00:53:30;;;;;;;1999.90;999.90;;;25.00;77.20;;;;;;5091942;28;20051;-69
2023/05/22 00:55:58;;;;;;;1999.90;999.90;;;25.00;77.00;;;;;;5089874;28;20016;-69
2023/05/22 00:58:27;;;;;;;1999.90;999.90;;;25.00;75.20;;;;;;5085672;28;20028;-70
2023/05/22 01:00:55;;;;;;;1999.90;999.90;;;25.00;76.40;;;;;;5081438;28;20048;-71
2023/05/22 01:03:25;;;;;;;1999.90;999.90;;;25.40;76.60;;;;;;5084706;28;20106;-70
2023/05/22 01:05:53;;;;;;;1999.90;999.90;;;25.90;75.80;;;;;;5085919;28;20027;-71
2023/05/22 01:08:21;;;;;;;1999.90;999.90;;;25.90;74.40;;;;;;5082745;28;20021;-70
2023/05/22 01:10:53;;;;;;;1999.90;999.90;;;25.90;74.50;;;;;;5083284;28;20557;-70
2023/05/22 01:13:45;;;;;;;1999.90;999.90;;;25.90;75.00;;;;;;5088591;28;20058;-71
2023/05/22 01:16:34;;;;;;;1999.90;999.90;;;25.70;74.10;;;;;;5092256;28;20161;-70
2023/05/22 01:19:35;;;;;;;1999.90;999.90;;;25.60;75.20;;;;;;5066591;28;20028;-70
2023/05/22 01:22:29;;;;;;;1999.90;999.90;;;25.50;75.10;;;;;;5053544;28;20478;-70
2023/05/22 01:25:06;;;;;;;1999.90;999.90;;;25.60;75.70;;;;;;5068769;28;20059;-69
2023/05/22 01:28:06;;;;;;;1999.90;999.90;;;26.00;74.40;;;;;;5089576;28;20470;-70
2023/05/22 01:30:42;;;;;;;1999.90;999.90;;;26.20;73.50;;;;;;5079324;28;20028;-69
2023/05/22 01:33:11;;;;;;;1999.90;999.90;;;26.30;72.60;;;;;;5086901;28;20027;-70
2023/05/22 01:35:41;;;;;;;1999.90;999.90;;;26.50;72.00;;;;;;5079314;28;20028;-71
2023/05/22 01:38:10;;;;;;;1999.90;999.90;;;26.60;72.00;;;;;;5080946;28;20092;-70
2023/05/22 01:40:38;;;;;;;1999.90;999.90;;;27.00;71.50;;;;;;5084767;28;20020;-71
2023/05/22 01:43:05;;;;;;;1999.90;999.90;;;27.00;71.10;;;;;;5094596;28;20040;-69
2023/05/22 01:45:33;;;;;;;1999.90;999.90;;;27.00;72.40;;;;;;5079808;28;20488;-71
2023/05/22 01:48:01;;;;;;;1999.90;999.90;;;27.20;72.70;;;;;;5087115;28;20135;-72
2023/05/22 01:50:28;;;;;;;1999.90;999.90;;;26.80;71.70;;;;;;5079362;28;20156;-71
2023/05/22 01:52:58;;;;;;;1999.90;999.90;;;26.80;71.60;;;;;;5083857;28;20034;-71
2023/05/22 01:56:13;;;;;;;1999.90;999.90;;;26.80;71.20;;;;;;5077469;28;20020;-71
2023/05/22 01:58:44;;;;;;;1999.90;999.90;;;26.20;70.00;;;;;;5069066;28;20089;-70
2023/05/22 02:01:14;;;;;;;1999.90;999.90;;;26.30;70.10;;;;;;5074433;28;20465;-70
2023/05/22 02:03:42;;;;;;;1999.90;999.90;;;26.50;68.60;;;;;;5086391;28;20089;-70
2023/05/22 02:06:12;;;;;;;1999.90;999.90;;;26.50;68.90;;;;;;5073520;28;20373;-71
2023/05/22 02:08:41;;;;;;;1999.90;999.90;;;26.70;70.30;;;;;;5078719;28;20644;-71
2023/05/22 02:11:11;;;;;;;1999.90;999.90;;;27.00;69.50;;;;;;5060062;28;20072;-71
2023/05/22 02:13:39;;;;;;;1999.90;999.90;;;27.10;69.20;;;;;;5090677;28;20034;-72
2023/05/22 02:16:08;;;;;;;1999.90;999.90;;;27.30;67.90;;;;;;5081736;28;20111;-71
2023/05/22 02:18:40;;;;;;;1999.90;999.90;;;27.00;67.70;;;;;;5085360;28;20060;-71
2023/05/22 02:21:08;;;;;;;1999.90;999.90;;;27.00;68.10;;;;;;5089482;28;20040;-70
2023/05/22 02:23:36;;;;;;;1999.90;999.90;;;26.50;66.70;;;;;;5083441;28;20035;-72
2023/05/22 02:26:04;;;;;;;1999.90;999.90;;;26.20;67.00;;;;;;5080730;28;20055;-71
2023/05/22 02:28:32;;;;;;;1999.90;999.90;;;26.00;67.30;;;;;;5089498;28;20036;-71
2023/05/22 02:31:02;;;;;;;1999.90;999.90;;;26.30;68.40;;;;;;5071132;28;20031;-69
2023/05/22 02:33:29;;;;;;;1999.90;999.90;;;26.30;66.10;;;;;;5089658;28;20032;-71
2023/05/22 02:35:57;;;;;;;1999.90;999.90;;;26.00;66.00;;;;;;5074169;28;20028;-70
2023/05/22 02:38:24;;;;;;;1999.90;999.90;;;26.10;67.30;;;;;;5075236;28;20432;-69
2023/05/22 02:40:51;;;;;;;1999.90;999.90;;;25.90;65.30;;;;;;5086779;28;20111;-71
2023/05/22 02:43:19;;;;;;;1999.90;999.90;;;25.50;65.60;;;;;;5071445;28;20032;-69
2023/05/22 02:45:46;;;;;;;1999.90;999.90;;;25.20;65.40;;;;;;5084995;28;20106;-71
2023/05/22 02:48:13;;;;;;;1999.90;999.90;;;24.70;66.20;;;;;;5091979;28;20486;-71
2023/05/22 02:50:43;;;;;;;1999.90;999.90;;;24.60;65.60;;;;;;5090869;28;20031;-72
2023/05/22 02:53:10;;;;;;;1999.90;999.90;;;24.10;66.50;;;;;;5080705;28;20028;-71
2023/05/22 02:55:37;;;;;;;1999.90;999.90;;;23.90;66.10;;;;;;5086657;28;20051;-73
2023/05/22 02:58:05;;;;;;;1999.90;999.90;;;24.10;67.60;;;;;;5095483;28;20028;-72
2023/05/22 03:00:32;;;;;;;1999.90;999.90;;;24.10;67.90;;;;;;5083174;28;20040;-70
2023/05/22 03:03:01;;;;;;;1999.90;999.90;;;24.00;66.80;;;;;;5084928;28;20020;-71
2023/05/22 03:05:31;;;;;;;1999.90;999.90;;;23.80;67.00;;;;;;5067109;28;20024;-69
2023/05/22 03:08:00;;;;;;;1999.90;999.90;;;23.80;66.40;;;;;;5081468;28;20039;-71
2023/05/22 03:10:27;;;;;;;1999.90;999.90;;;23.60;66.20;;;;;;5084968;28;20049;-69
2023/05/22 03:12:55;;;;;;;1999.90;999.90;;;23.50;66.00;;;;;;5088815;28;20233;-69
2023/05/22 03:15:22;;;;;;;1999.90;999.90;;;23.40;65.80;;;;;;5084610;28;20063;-73
2023/05/22 03:17:49;;;;;;;1999.90;999.90;;;23.30;67.00;;;;;;5094872;28;20028;-70
2023/05/22 03:20:17;;;;;;;1999.90;999.90;;;23.20;65.70;;;;;;5086378;28;20031;-69
2023/05/22 03:22:47;;;;;;;1999.90;999.90;;;23.10;66.80;;;;;;5085382;28;20103;-71
2023/05/22 03:25:15;;;;;;;1999.90;999.90;;;22.80;67.50;;;;;;5080585;28;20024;-68
2023/05/22 03:27:43;;;;;;;1999.90;999.90;;;22.30;67.80;;;;;;5084440;28;20016;-69
2023/05/22 03:30:11;;;;;;;1999.90;999.90;;;22.00;69.60;;;;;;5078735;28;20088;-71
2023/05/22 03:32:39;;;;;;;1999.90;999.90;;;21.80;69.50;;;;;;5079914;28;20707;-70
2023/05/22 03:35:07;;;;;;;1999.90;999.90;;;21.70;68.70;;;;;;5092704;28;20424;-70
2023/05/22 03:37:34;;;;;;;1999.90;999.90;;;21.50;69.80;;;;;;5086587;28;20024;-70
2023/05/22 03:40:03;;;;;;;1999.90;999.90;;;21.40;69.80;;;;;;5092482;28;20034;-70
2023/05/22 03:42:30;;;;;;;1999.90;999.90;;;21.20;70.60;;;;;;5089824;28;20528;-69
2023/05/22 03:44:58;;;;;;;1999.90;999.90;;;21.00;69.70;;;;;;5080625;28;20060;-69
2023/05/22 03:47:26;;;;;;;1999.90;999.90;;;20.60;70.80;;;;;;5086611;28;20146;-68
2023/05/22 03:49:53;;;;;;;1999.90;999.90;;;20.50;71.20;;;;;;5089338;28;20029;-69
2023/05/22 03:52:21;;;;;;;1999.90;999.90;;;20.20;71.20;;;;;;5090225;28;20028;-71
2023/05/22 03:54:48;;;;;;;1999.90;999.90;;;20.10;70.40;;;;;;5099855;28;20066;-69
2023/05/22 03:57:18;;;;;;;1999.90;999.90;;;19.90;70.70;;;;;;5090792;28;20504;-67
2023/05/22 03:59:46;;;;;;;1999.90;999.90;;;19.70;70.90;;;;;;5082011;28;20767;-68
2023/05/22 04:02:15;;;;;;;1999.90;999.90;;;19.60;72.60;;;;;;5078962;28;20036;-68
2023/05/22 04:04:44;;;;;;;1999.90;999.90;;;19.70;72.30;;;;;;5090401;28;20028;-70
2023/05/22 04:07:17;;;;;;;1999.90;999.90;;;19.70;71.70;;;;;;5100544;28;20024;-68
2023/05/22 04:09:44;;;;;;;1999.90;999.90;;;19.60;71.30;;;;;;5065569;28;20028;-69
2023/05/22 04:12:12;;;;;;;1999.90;999.90;;;19.60;71.90;;;;;;5103130;28;20428;-69
2023/05/22 04:14:39;;;;;;;1999.90;999.90;;;19.50;71.20;;;;;;5099185;28;20089;-69
2023/05/22 04:17:06;;;;;;;1999.90;999.90;;;19.40;71.80;;;;;;5095552;28;20036;-69
2023/05/22 04:19:35;;;;;;;1999.90;999.90;;;19.30;73.00;;;;;;5086893;28;20374;-66
2023/05/22 04:22:02;;;;;;;1999.90;999.90;;;19.20;72.80;;;;;;5086674;28;20069;-69
2023/05/22 04:24:29;;;;;;;1999.90;999.90;;;19.10;73.00;;;;;;5097520;28;20054;-69
2023/05/22 04:27:01;;;;;;;1999.90;999.90;;;19.10;73.10;;;;;;5097012;28;20055;-68
2023/05/22 04:29:28;;;;;;;1999.90;999.90;;;19.10;73.30;;;;;;5091705;28;20025;-68
2023/05/22 04:31:55;;;;;;;1999.90;999.90;;;19.10;73.00;;;;;;5094715;28;20047;-68
2023/05/22 04:34:23;;;;;;;1999.90;999.90;;;19.20;72.50;;;;;;5088968;28;20020;-68
2023/05/22 04:36:51;;;;;;;1999.90;999.90;;;19.10;73.90;;;;;;5094486;28;20516;-67
2023/05/22 04:39:19;;;;;;;1999.90;999.90;;;19.10;72.90;;;;;;5095742;28;20112;-70
2023/05/22 04:41:47;;;;;;;1999.90;999.90;;;19.10;73.30;;;;;;5096596;28;20031;-69
2023/05/22 04:44:15;;;;;;;1999.90;999.90;;;19.00;73.70;;;;;;5076547;28;20114;-70
2023/05/22 04:46:43;;;;;;;1999.90;999.90;;;19.00;73.80;;;;;;5090568;28;20382;-69
2023/05/22 04:49:10;;;;;;;1999.90;999.90;;;18.90;74.10;;;;;;5087870;28;20048;-68
2023/05/22 04:51:38;;;;;;;1999.90;999.90;;;18.80;74.00;;;;;;5086546;28;20042;-73
2023/05/22 04:54:05;;;;;;;1999.90;999.90;;;18.80;74.00;;;;;;5089013;28;20028;-68
2023/05/22 04:56:33;;;;;;;1999.90;999.90;;;18.80;74.80;;;;;;5086581;28;20028;-72
2023/05/22 04:59:00;;;;;;;1999.90;999.90;;;18.80;74.90;;;;;;5081380;28;20081;-71
2023/05/22 05:01:27;;;;;;;1999.90;999.90;;;18.80;74.60;;;;;;5090943;28;20485;-72
2023/05/22 05:03:55;;;;;;;1999.90;999.90;;;18.80;74.30;;;;;;5098188;28;20418;-71
2023/05/22 05:06:23;;;;;;;1999.90;999.90;;;18.80;74.00;;;;;;5078814;28;20028;-69
2023/05/22 05:08:51;;;;;;;1999.90;999.90;;;18.80;74.20;;;;;;5082945;28;20474;-68
2023/05/22 05:11:20;;;;;;;1999.90;999.90;;;18.80;75.40;;;;;;5087894;28;20070;-70
2023/05/22 05:13:47;;;;;;;1999.90;999.90;;;18.80;76.00;;;;;;5083175;28;20491;-71
2023/05/22 05:16:14;;;;;;;1999.90;999.90;;;18.70;75.60;;;;;;5085822;28;20027;-69
2023/05/22 05:18:42;;;;;;;1999.90;999.90;;;18.70;75.80;;;;;;5091080;28;20135;-70
2023/05/22 05:21:09;;;;;;;1999.90;999.90;;;18.70;75.80;;;;;;5092861;28;20027;-69
2023/05/22 05:23:37;;;;;;;1999.90;999.90;;;18.70;75.70;;;;;;5086527;28;20032;-70
2023/05/22 05:26:06;;;;;;;1999.90;999.90;;;18.70;75.20;;;;;;5080640;28;20569;-68
2023/05/22 05:28:33;;;;;;;1999.90;999.90;;;18.70;74.90;;;;;;5091006;28;20127;-69
2023/05/22 05:31:01;;;;;;;1999.90;999.90;;;18.70;74.30;;;;;;5085037;28;20577;-69
2023/05/22 05:33:28;;;;;;;1999.90;999.90;;;18.70;75.20;;;;;;5088915;28;20637;-69
2023/05/22 05:35:55;;;;;;;1999.90;999.90;;;18.70;75.50;;;;;;5089880;28;20056;-71
2023/05/22 05:38:23;;;;;;;1999.90;999.90;;;18.60;75.90;;;;;;5092834;28;20039;-70
2023/05/22 05:40:50;;;;;;;1999.90;999.90;;;18.60;76.30;;;;;;5089140;28;20542;-69
2023/05/22 05:43:18;;;;;;;1999.90;999.90;;;18.60;76.20;;;;;;5092232;28;20081;-70
2023/05/22 05:45:46;;;;;;;1999.90;999.90;;;18.60;76.40;;;;;;5078413;28;20028;-70
2023/05/22 05:48:13;;;;;;;1999.90;999.90;;;18.60;76.60;;;;;;5070045;28;20422;-71
2023/05/22 05:50:41;;;;;;;1999.90;999.90;;;18.60;76.50;;;;;;5070046;28;20032;-73
2023/05/22 05:53:08;;;;;;;1999.90;999.90;;;18.70;76.40;;;;;;5092064;28;20079;-68
2023/05/22 05:55:36;;;;;;;1999.90;999.90;;;18.80;76.10;;;;;;5088495;28;20036;-72
2023/05/22 05:58:03;;;;;;;1999.90;999.90;;;18.80;76.10;;;;;;5081541;28;20031;-72
2023/05/22 06:00:31;;;;;;;1999.90;999.90;;;18.90;76.40;;;;;;5078578;28;20043;-73
2023/05/22 06:02:58;;;;;;;1999.90;999.90;;;19.00;76.20;;;;;;5083598;28;20086;-72
2023/05/22 06:05:25;;;;;;;1999.90;999.90;;;19.00;75.90;;;;;;5085170;28;20081;-70
2023/05/22 06:07:53;;;;;;;1999.90;999.90;;;19.10;76.20;;;;;;5081144;28;20025;-69
2023/05/22 06:10:21;;;;;;;1999.90;999.90;;;19.10;76.60;;;;;;5078077;28;20066;-70
2023/05/22 06:12:48;;;;;;;1999.90;999.90;;;19.10;76.80;;;;;;5085898;28;20450;-71
2023/05/22 06:15:16;;;;;;;1999.90;999.90;;;19.10;76.70;;;;;;5087233;28;20033;-70
2023/05/22 06:17:43;;;;;;;1999.90;999.90;;;19.10;76.10;;;;;;5092007;28;20024;-69
2023/05/22 06:20:13;;;;;;;1999.90;999.90;;;19.10;76.40;;;;;;5090045;28;20031;-70
2023/05/22 06:22:40;;;;;;;1999.90;999.90;;;19.10;76.90;;;;;;5086042;28;20509;-72
2023/05/22 06:25:08;;;;;;;1999.90;999.90;;;19.10;77.10;;;;;;5076558;28;20131;-70
2023/05/22 06:27:36;;;;;;;1999.90;999.90;;;19.10;76.90;;;;;;5085862;28;20038;-70
2023/05/22 06:30:03;;;;;;;1999.90;999.90;;;19.00;77.00;;;;;;5081923;28;20124;-71
2023/05/22 06:32:31;;;;;;;1999.90;999.90;;;18.80;77.10;;;;;;5084204;28;20584;-70
2023/05/22 06:34:58;;;;;;;1999.90;999.90;;;18.70;77.30;;;;;;5073685;28;20656;-69
2023/05/22 06:37:25;;;;;;;1999.90;999.90;;;18.60;77.50;;;;;;5092825;28;20032;-68
2023/05/22 06:39:53;;;;;;;1999.90;999.90;;;18.40;77.80;;;;;;5089523;28;20486;-72
2023/05/22 06:42:20;;;;;;;1999.90;999.90;;;18.10;78.20;;;;;;5085663;28;20165;-70
2023/05/22 06:44:47;;;;;;;1999.90;999.90;;;17.90;79.00;;;;;;5083280;28;20028;-70
2023/05/22 06:47:15;;;;;;;1999.90;999.90;;;17.60;79.40;;;;;;5088892;28;20039;-68
2023/05/22 06:49:42;;;;;;;1999.90;999.90;;;17.40;80.20;;;;;;5094701;28;20561;-69
2023/05/22 06:52:10;;;;;;;1999.90;999.90;;;17.20;81.60;;;;;;5083623;28;20040;-70
2023/05/22 06:54:41;;;;;;;1999.90;999.90;;;17.00;82.10;;;;;;5075691;28;20053;-69
2023/05/22 06:57:09;;;;;;;1999.90;999.90;;;16.70;82.60;;;;;;5075257;28;20049;-69
2023/05/22 06:59:37;;;;;;;1999.90;999.90;;;16.60;83.60;;;;;;5077610;28;20017;-69
2023/05/22 07:02:05;;;;;;;1999.90;999.90;;;16.40;83.40;;;;;;5079035;28;20055;-69
2023/05/22 07:04:32;;;;;;;1999.90;999.90;;;16.30;84.20;;;;;;5077491;28;20111;-69
2023/05/22 07:07:00;;;;;;;1999.90;999.90;;;16.20;85.30;;;;;;5082593;28;20020;-69
2023/05/22 07:09:28;;;;;;;1999.90;999.90;;;16.10;85.10;;;;;;5079503;28;20025;-68
2023/05/22 07:11:55;;;;;;;1999.90;999.90;;;15.90;85.60;;;;;;5079885;28;20605;-69
2023/05/22 07:14:22;;;;;;;1999.90;999.90;;;15.80;86.30;;;;;;5084978;28;20031;-69
2023/05/22 07:16:50;;;;;;;1999.90;999.90;;;15.70;86.80;;;;;;5083454;28;20035;-68
2023/05/22 07:19:18;;;;;;;1999.90;999.90;;;15.60;88.40;;;;;;5066993;28;20590;-69
2023/05/22 07:21:45;;;;;;;1999.90;999.90;;;15.50;88.50;;;;;;5085793;28;20036;-70
2023/05/22 07:24:12;;;;;;;1999.90;999.90;;;15.30;89.00;;;;;;5089960;28;20032;-69
2023/05/22 07:26:47;;;;;;;1999.90;999.90;;;15.10;90.00;;;;;;5081783;28;20574;-69
2023/05/22 07:29:14;;;;;;;1999.90;999.90;;;15.00;90.50;;;;;;5088391;28;20026;-69
2023/05/22 07:31:41;;;;;;;1999.90;999.90;;;14.80;91.00;;;;;;5080820;28;20052;-71
2023/05/22 07:34:09;;;;;;;1999.90;999.90;;;14.70;90.80;;;;;;5086628;28;20028;-69
2023/05/22 07:36:36;;;;;;;1999.90;999.90;;;14.60;91.60;;;;;;5085122;28;20043;-70
2023/05/22 07:39:04;;;;;;;1999.90;999.90;;;14.50;91.60;;;;;;5093880;28;20125;-70
2023/05/22 07:41:31;;;;;;;1999.90;999.90;;;14.40;91.60;;;;;;5071150;28;20024;-69
2023/05/22 07:43:59;;;;;;;1999.90;999.90;;;14.30;91.80;;;;;;5086098;28;20023;-70
2023/05/22 07:46:27;;;;;;;1999.90;999.90;;;14.10;92.10;;;;;;5069324;28;20382;-69
2023/05/22 07:48:54;;;;;;;1999.90;999.90;;;14.00;92.40;;;;;;5093914;28;20029;-68
2023/05/22 07:51:22;;;;;;;1999.90;999.90;;;13.90;92.30;;;;;;5077509;28;20111;-70
2023/05/22 07:53:50;;;;;;;1999.90;999.90;;;13.80;92.70;;;;;;5072077;28;20042;-70
2023/05/22 07:56:17;;;;;;;1999.90;999.90;;;13.70;93.00;;;;;;5091277;28;20375;-70
2023/05/22 07:58:47;;;;;;;1999.90;999.90;;;13.70;93.30;;;;;;5078643;28;20441;-69
2023/05/22 08:01:17;;;;;;;1999.90;999.90;;;13.60;93.60;;;;;;5082956;28;20130;-69
2023/05/22 08:03:44;;;;;;;1999.90;999.90;;;13.50;93.80;;;;;;5084467;28;20037;-70
2023/05/22 08:06:14;;;;;;;1999.90;999.90;;;13.40;93.90;;;;;;5079307;28;20490;-69
2023/05/22 08:08:42;;;;;;;1999.90;999.90;;;13.40;94.40;;;;;;5079060;28;20036;-69
2023/05/22 08:11:09;;;;;;;1999.90;999.90;;;13.40;94.10;;;;;;5084836;28;20379;-68
2023/05/22 08:13:37;;;;;;;1999.90;999.90;;;13.30;93.90;;;;;;5058401;28;20089;-68
2023/05/22 08:16:05;;;;;;;1999.90;999.90;;;13.20;94.10;;;;;;5083735;28;20021;-68
2023/05/22 08:18:32;;;;;;;1999.90;999.90;;;13.20;94.10;;;;;;5089594;28;20031;-69
2023/05/22 08:20:59;;;;;;;1999.90;999.90;;;13.10;94.20;;;;;;5078012;28;20027;-69
2023/05/22 08:23:27;;;;;;;1999.90;999.90;;;13.00;94.40;;;;;;5090600;28;20032;-69
2023/05/22 08:25:54;;;;;;;1999.90;999.90;;;12.90;94.30;;;;;;5089485;28;20055;-69
2023/05/22 08:28:21;;;;;;;1999.90;999.90;;;12.80;94.50;;;;;;5089384;28;20119;-68
2023/05/22 08:30:49;;;;;;;1999.90;999.90;;;12.80;94.80;;;;;;5087430;28;20032;-68
2023/05/22 08:33:18;;;;;;;1999.90;999.90;;;12.80;94.90;;;;;;5091784;28;20032;-69
2023/05/22 08:35:45;;;;;;;1999.90;999.90;;;12.70;95.10;;;;;;5095565;28;20028;-68
2023/05/22 08:38:18;;;;;;;1999.90;999.90;;;12.70;95.20;;;;;;5098038;28;20115;-70
2023/05/22 08:40:48;;;;;;;1999.90;999.90;;;12.70;95.50;;;;;;5090647;28;20032;-69
2023/05/22 08:43:16;;;;;;;1999.90;999.90;;;12.70;95.60;;;;;;5087825;28;20040;-68
2023/05/22 08:45:44;;;;;;;1999.90;999.90;;;12.60;95.70;;;;;;5089088;28;20039;-69
2023/05/22 08:48:13;;;;;;;1999.90;999.90;;;12.50;95.70;;;;;;5091617;28;20024;-69
2023/05/22 08:50:46;;;;;;;1999.90;999.90;;;12.40;95.80;;;;;;5087805;28;20020;-69
2023/05/22 08:53:16;;;;;;;1999.90;999.90;;;12.30;96.10;;;;;;5079672;28;20474;-68
2023/05/22 08:55:47;;;;;;;1999.90;999.90;;;12.30;96.50;;;;;;5090933;28;20020;-69
2023/05/22 08:58:15;;;;;;;1999.90;999.90;;;12.20;96.50;;;;;;5090483;28;20074;-69
2023/05/22 09:00:43;;;;;;;1999.90;999.90;;;12.10;96.40;;;;;;5087044;28;20041;-68
2023/05/22 09:03:12;;;;;;;1999.90;999.90;;;12.10;96.40;;;;;;5096189;28;20533;-68
2023/05/22 09:05:40;;;;;;;1999.90;999.90;;;12.00;96.60;;;;;;5090217;28;20036;-69
2023/05/22 09:08:08;;;;;;;1999.90;999.90;;;11.90;96.80;;;;;;5096033;28;20056;-70
2023/05/22 09:10:36;;;;;;;1999.90;999.90;;;11.90;97.20;;;;;;5093004;28;20085;-70
2023/05/22 09:13:08;;;;;;;1999.90;999.90;;;11.90;97.30;;;;;;5096849;28;20127;-69
2023/05/22 09:15:36;;;;;;;1999.90;999.90;;;11.80;97.50;;;;;;5092249;28;20032;-69
2023/05/22 09:18:05;;;;;;;1999.90;999.90;;;11.80;97.60;;;;;;5092517;28;20028;-70
2023/05/22 09:20:39;;;;;;;1999.90;999.90;;;11.80;97.70;;;;;;5087150;28;20028;-69
2023/05/22 09:23:14;;;;;;;1999.90;999.90;;;11.70;98.00;;;;;;5081151;28;20231;-69
2023/05/22 09:25:45;;;;;;;1999.90;999.90;;;11.70;98.10;;;;;;5091026;28;20378;-69
2023/05/22 09:28:13;;;;;;;1999.90;999.90;;;11.70;98.50;;;;;;5100456;28;20494;-70
2023/05/22 09:30:41;;;;;;;1999.90;999.90;;;11.70;98.90;;;;;;5094090;28;20059;-70
2023/05/22 09:33:11;;;;;;;1999.90;999.90;;;11.70;99.30;;;;;;5085140;28;20028;-70
2023/05/22 09:35:40;;;;;;;1999.90;999.90;;;11.70;99.60;;;;;;5088841;28;20031;-68
2023/05/22 09:38:09;;;;;;;1999.90;999.90;;;11.70;99.70;;;;;;5095311;28;20042;-70
2023/05/22 09:40:43;;;;;;;1999.90;999.90;;;11.60;99.90;;;;;;5084778;28;20383;-70
2023/05/22 09:43:11;;;;;;;1999.90;999.90;;;11.60;99.90;;;;;;5071142;28;20111;-69
2023/05/22 09:45:44;;;;;;;1999.90;999.90;;;11.60;99.90;;;;;;5088342;28;20034;-70
2023/05/22 09:48:15;;;;;;;1999.90;999.90;;;11.60;99.90;;;;;;5093447;28;20032;-70
2023/05/22 09:50:50;;;;;;;1999.90;999.90;;;11.50;99.90;;;;;;5087831;28;20027;-71
2023/05/22 09:53:18;;;;;;;1999.90;999.90;;;11.50;99.90;;;;;;5088035;28;21269;-70
2023/05/22 09:55:48;;;;;;;1999.90;999.90;;;11.40;99.90;;;;;;5082511;28;20053;-71
2023/05/22 09:58:19;;;;;;;1999.90;999.90;;;11.40;99.90;;;;;;5096258;28;20031;-70
2023/05/22 10:00:48;;;;;;;1999.90;999.90;;;11.30;99.90;;;;;;5089004;28;20077;-71
2023/05/22 10:03:18;;;;;;;1999.90;999.90;;;11.20;99.90;;;;;;5095809;28;20063;-71
2023/05/22 10:05:51;;;;;;;1999.90;999.90;;;11.10;99.90;;;;;;5092929;28;20500;-71
2023/05/22 10:08:26;;;;;;;1999.90;999.90;;;11.10;99.90;;;;;;5090336;28;20032;-71
2023/05/22 10:10:54;;;;;;;1999.90;999.90;;;11.10;99.90;;;;;;5088959;28;20034;-70
2023/05/22 10:13:23;;;;;;;1999.90;999.90;;;11.10;99.90;;;;;;5095725;28;20054;-70
2023/05/22 10:15:51;;;;;;;1999.90;999.90;;;11.10;99.90;;;;;;5088160;28;20116;-71
2023/05/22 10:18:18;;;;;;;1999.90;999.90;;;11.10;99.90;;;;;;5096173;28;20067;-71
2023/05/22 10:20:46;;;;;;;1999.90;999.90;;;11.10;99.90;;;;;;5087721;28;20420;-70
2023/05/22 10:23:17;;;;;;;1999.90;999.90;;;11.20;99.90;;;;;;5098933;28;20035;-70
2023/05/22 10:25:46;;;;;;;1999.90;999.90;;;11.20;99.90;;;;;;5069797;28;20378;-69
2023/05/22 10:28:21;;;;;;;1999.90;999.90;;;11.20;99.90;;;;;;5095069;28;20081;-69
2023/05/22 10:31:05;;;;;;;1999.90;999.90;;;11.10;99.90;;;;;;5071016;28;20500;-69
2023/05/22 10:33:40;;;;;;;1999.90;999.90;;;11.10;99.90;;;;;;5099822;28;20552;-69
2023/05/22 10:36:19;;;;;;;1999.90;999.90;;;11.00;99.90;;;;;;5091487;28;20045;-69
2023/05/22 10:38:53;;;;;;;1999.90;999.90;;;11.00;99.90;;;;;;5097527;28;20131;-69
2023/05/22 10:41:21;;;;;;;1999.90;999.90;;;10.90;99.90;;;;;;5092070;28;20111;-69
2023/05/22 10:43:49;;;;;;;1999.90;999.90;;;10.90;99.90;;;;;;5096261;28;20036;-69
2023/05/22 10:46:18;;;;;;;1999.90;999.90;;;10.90;99.90;;;;;;5094844;28;20118;-69
2023/05/22 10:48:48;;;;;;;1999.90;999.90;;;10.70;99.90;;;;;;5092227;28;20035;-69
2023/05/22 10:51:24;;;;;;;1999.90;999.90;;;10.70;99.90;;;;;;5088831;28;20032;-69
2023/05/22 10:54:04;;;;;;;1999.90;999.90;;;10.60;99.90;;;;;;5096485;28;20039;-69
2023/05/22 10:56:38;;;;;;;1999.90;999.90;;;10.50;99.90;;;;;;5088736;28;20429;-69
2023/05/22 10:59:06;;;;;;;1999.90;999.90;;;10.50;99.90;;;;;;5088179;28;20023;-70
2023/05/22 11:01:36;;;;;;;1999.90;999.90;;;10.40;99.90;;;;;;5089283;28;20040;-69
2023/05/22 11:04:06;;;;;;;1999.90;999.90;;;10.30;99.90;;;;;;5087829;28;20044;-70
2023/05/22 11:06:46;;;;;;;1999.90;999.90;;;10.30;99.90;;;;;;5086580;28;20020;-68
2023/05/22 11:09:27;;;;;;;1999.90;999.90;;;10.20;99.90;;;;;;5072979;28;20028;-69
2023/05/22 11:12:23;;;;;;;1999.90;999.90;;;10.20;99.90;;;;;;5083965;28;20036;-69
2023/05/22 11:14:51;;;;;;;1999.90;999.90;;;10.10;99.90;;;;;;5078372;28;20720;-70
2023/05/22 11:17:27;;;;;;;1999.90;999.90;;;10.00;99.90;;;;;;5090807;28;20127;-69
2023/05/22 11:19:58;;;;;;;;;;;9.90;99.90;;;;;;5083562;28;20024;-69
2023/05/22 11:22:40;;;;;;;1999.90;999.90;;;9.80;99.90;;;;;;5084698;28;19915;-69
2023/05/22 11:25:16;;;;;;;1999.90;999.90;;;9.70;99.90;;;;;;5062489;28;20775;-69
2023/05/22 11:27:44;;;;;;;1999.90;999.90;;;9.70;99.90;;;;;;5086895;28;20112;-69
2023/05/22 11:30:12;;;;;;;1999.90;999.90;;;9.60;99.90;;;;;;5077456;28;20020;-70
2023/05/22 11:32:43;;;;;;;1999.90;999.90;;;9.60;99.90;;;;;;5091920;28;20056;-69
2023/05/22 11:35:22;;;;;;;1999.90;999.90;;;9.60;99.90;;;;;;5091644;28;20043;-69
2023/05/22 11:37:52;;;;;;;1999.90;999.90;;;9.50;99.90;;;;;;5095051;28;20058;-69
2023/05/22 11:40:23;;;;;;;1999.90;999.90;;;9.40;99.90;;;;;;5083033;28;20031;-69
2023/05/22 11:42:55;;;;;;;1999.90;999.90;;;9.40;99.90;;;;;;5090889;28;20024;-69
2023/05/22 11:45:22;;;;;;;1999.90;999.90;;;9.40;99.90;;;;;;5088146;28;20042;-70
2023/05/22 11:47:50;;;;;;;1999.90;999.90;;;9.40;99.90;;;;;;5098588;28;20019;-69
2023/05/22 11:50:17;;;;;;;1999.90;999.90;;;9.50;99.90;;;;;;5088010;28;20517;-68
2023/05/22 11:52:45;;;;;;;1999.90;999.90;;;9.50;99.90;;;;;;5092574;28;20042;-69
2023/05/22 11:55:13;;;;;;;1999.90;999.90;;;9.50;99.90;;;;;;5094741;28;20016;-69
2023/05/22 11:57:40;;;;;;;1999.90;999.90;;;9.50;99.90;;;;;;5100213;28;20071;-69
2023/05/22 12:00:09;;;;;;;1999.90;999.90;;;9.50;99.90;;;;;;5092295;28;20373;-71
2023/05/22 12:02:55;;;;;;;1999.90;999.90;;;9.50;99.90;;;;;;5083186;28;20050;-69
2023/05/22 12:05:22;;;;;;;1999.90;999.90;;;9.40;99.90;;;;;;5091143;28;20036;-70
2023/05/22 12:07:50;;;;;;;1999.90;999.90;;;9.40;99.90;;;;;;5074455;28;20031;-69
2023/05/22 12:10:17;;;;;;;1999.90;999.90;;;9.40;99.90;;;;;;5093074;28;20401;-69
2023/05/22 12:12:46;;;;;;;1999.90;999.90;;;9.30;99.90;;;;;;5093596;28;20089;-69